AYNZ/LAE METAR and TAF weather

Enter ICAO airport designator
Station Type Date Time Source
AYNZ METAR 2021/08/04 06:00 UTC NOAA

AYNZ 040600Z 05010G20KT 9999 SCT035 SCT050 31/22 Q1008=


Station Type Date Time Source
AYNZ Decoded METAR 2021/08/04 06:00 UTC NOAA

Station name not available
Aug 04, 2021 - 02:00 AM EDT / 2021.08.04 0600 UTC
Wind: from the NE (050 degrees) at 12 MPH (10 KT) gusting to 23 MPH (20 KT):0
Visibility: greater than 7 mile(s):0
Sky conditions: partly cloudy
Temperature: 87 F (31 C)
Heat index: 92.3 F (33.5 C):1
Dew Point: 71 F (22 C)
Relative Humidity: 58%
Pressure (altimeter): 29.77 in. Hg (1008 hPa)
ob: AYNZ 040600Z 05010G20KT 9999 SCT035 SCT050 31/22 Q1008=
cycle: 6

Station Type Date Time Source
AYNZ TAF 2015/08/19 08:15 UTC NOAA

TAF AYNZ 190550Z 1908/1920 09015KT 9999 SCT020 SCT120
FM191400 VRB03KT 9999 BKN040 Q 1011 1014 1013 1010

Example: see airport list